createdAt,value
2023-03-22T00:01:53.691Z,8.15
2023-03-22T00:04:43.614Z,8.14
2023-03-22T00:07:32.325Z,8.28
2023-03-22T00:10:21.065Z,8.27
2023-03-22T00:13:11.102Z,8.33
2023-03-22T00:15:59.746Z,8.25
2023-03-22T00:18:49.781Z,8.14
2023-03-22T00:21:38.215Z,8.18
2023-03-22T00:24:26.679Z,8.14
2023-03-22T00:27:16.147Z,8.21
2023-03-22T00:30:05.526Z,8.13
2023-03-22T00:32:53.997Z,8.03
2023-03-22T00:35:49.416Z,8.04
2023-03-22T00:38:42.780Z,8.21
2023-03-22T00:41:32.375Z,8.17
2023-03-22T00:44:20.823Z,8.17
2023-03-22T00:47:09.309Z,8.16
2023-03-22T00:49:57.764Z,8.25
2023-03-22T00:52:47.646Z,8.23
2023-03-22T00:55:36.110Z,8.16
2023-03-22T00:58:24.587Z,8.06
2023-03-22T01:01:14.506Z,7.96
2023-03-22T01:04:03.208Z,7.93
2023-03-22T01:06:51.670Z,7.88
2023-03-22T01:09:41.508Z,7.98
2023-03-22T01:12:30.008Z,8.04
2023-03-22T01:15:18.655Z,8.08
2023-03-22T01:18:07.546Z,8.06
2023-03-22T01:20:56.137Z,8.06
2023-03-22T01:23:44.586Z,8.06
2023-03-22T01:26:35.703Z,8.00
2023-03-22T01:29:24.371Z,7.86
2023-03-22T01:32:12.889Z,7.80
2023-03-22T01:35:01.443Z,7.67
2023-03-22T01:37:49.957Z,7.57
2023-03-22T01:40:38.869Z,7.48
2023-03-22T01:43:29.020Z,7.57
2023-03-22T01:46:17.555Z,7.63
2023-03-22T01:49:07.592Z,7.64
2023-03-22T01:51:57.427Z,7.60
2023-03-22T01:54:48.429Z,7.62
2023-03-22T01:57:37.876Z,7.57
2023-03-22T02:00:27.817Z,7.34
2023-03-22T02:03:18.944Z,7.57
2023-03-22T02:06:08.132Z,7.55
2023-03-22T02:08:58.318Z,7.62
2023-03-22T02:11:51.396Z,7.61
2023-03-22T02:14:49.945Z,7.59
2023-03-22T02:17:51.380Z,7.61
2023-03-22T02:21:13.276Z,7.57
2023-03-22T02:24:46.210Z,7.56
2023-03-22T02:27:53.715Z,7.55
2023-03-22T02:31:00.430Z,7.51
2023-03-22T02:34:16.695Z,7.60
2023-03-22T02:37:36.250Z,7.60
2023-03-22T02:40:32.019Z,7.60
2023-03-22T02:43:30.751Z,7.51
2023-03-22T02:46:22.578Z,7.54
2023-03-22T02:49:17.556Z,7.40
2023-03-22T02:52:17.228Z,7.64
2023-03-22T02:55:09.419Z,7.61
2023-03-22T02:58:02.239Z,7.53
2023-03-22T03:00:53.193Z,7.51
2023-03-22T03:03:41.839Z,7.54
2023-03-22T03:06:35.716Z,7.53
2023-03-22T03:09:24.834Z,7.53
2023-03-22T03:12:16.380Z,7.64
2023-03-22T03:15:13.646Z,7.77
2023-03-22T03:18:13.827Z,7.71
2023-03-22T03:21:06.696Z,7.73
2023-03-22T03:23:58.876Z,7.55
2023-03-22T03:26:54.667Z,7.97
2023-03-22T03:29:44.770Z,7.96
2023-03-22T03:32:36.932Z,8.01
2023-03-22T03:35:28.046Z,7.85
2023-03-22T03:38:19.324Z,7.25
2023-03-22T03:41:10.315Z,8.00
2023-03-22T03:43:59.375Z,8.05
2023-03-22T03:46:48.862Z,8.08
2023-03-22T03:49:38.893Z,8.02
2023-03-22T03:52:27.553Z,8.02
2023-03-22T03:55:16.620Z,8.00
2023-03-22T03:58:05.091Z,7.95
2023-03-22T04:00:53.530Z,7.91
2023-03-22T04:03:41.960Z,7.87
2023-03-22T04:06:34.669Z,7.79
2023-03-22T04:09:23.683Z,7.80
2023-03-22T04:12:12.253Z,7.70
2023-03-22T04:15:01.042Z,7.61
2023-03-22T04:17:49.587Z,7.50
2023-03-22T04:20:39.153Z,7.43
2023-03-22T04:23:29.186Z,7.21
2023-03-22T04:26:17.700Z,7.21
2023-03-22T04:29:06.621Z,7.08
2023-03-22T04:31:55.144Z,6.97
2023-03-22T04:34:43.714Z,7.02
2023-03-22T04:37:32.476Z,6.62
2023-03-22T04:40:22.269Z,6.93
2023-03-22T04:43:13.305Z,6.83
2023-03-22T04:46:02.918Z,6.77
2023-03-22T04:48:51.569Z,6.82
2023-03-22T04:51:40.025Z,6.68
2023-03-22T04:54:28.718Z,6.88
2023-03-22T04:57:18.517Z,6.85
2023-03-22T05:00:10.048Z,6.81
2023-03-22T05:02:58.897Z,6.67
2023-03-22T05:05:52.720Z,6.57
2023-03-22T05:08:41.354Z,6.52
2023-03-22T05:11:29.848Z,6.53
2023-03-22T05:14:19.850Z,6.50
2023-03-22T05:17:08.429Z,6.41
2023-03-22T05:19:56.986Z,6.40
2023-03-22T05:22:45.552Z,6.12
2023-03-22T05:25:34.456Z,6.24
2023-03-22T05:28:23.035Z,6.31
2023-03-22T05:31:15.580Z,6.20
2023-03-22T05:34:04.305Z,6.21
2023-03-22T05:36:52.786Z,6.26
2023-03-22T05:39:41.394Z,5.88
2023-03-22T05:42:29.816Z,6.15
2023-03-22T05:45:19.008Z,6.18
2023-03-22T05:48:09.024Z,6.03
2023-03-22T05:50:57.685Z,6.14
2023-03-22T05:53:46.460Z,6.24
2023-03-22T05:56:35.209Z,6.35
2023-03-22T05:59:23.866Z,6.37
2023-03-22T06:02:12.367Z,6.65
2023-03-22T06:05:02.422Z,6.81
2023-03-22T06:07:51.056Z,6.84
2023-03-22T06:10:39.835Z,6.89
2023-03-22T06:13:28.533Z,6.93
2023-03-22T06:16:17.108Z,7.14
2023-03-22T06:19:05.619Z,7.39
2023-03-22T06:21:56.388Z,7.57
2023-03-22T06:24:44.867Z,7.77
2023-03-22T06:27:33.492Z,7.96
2023-03-22T06:30:22.137Z,8.08
2023-03-22T06:33:10.789Z,8.17
2023-03-22T06:36:00.835Z,8.52
2023-03-22T06:38:50.746Z,9.02
2023-03-22T06:41:39.238Z,9.09
2023-03-22T06:44:27.872Z,9.24
2023-03-22T06:47:16.560Z,9.22
2023-03-22T06:50:05.606Z,8.81
2023-03-22T06:52:54.150Z,9.02
2023-03-22T06:55:44.111Z,9.17
2023-03-22T06:58:32.580Z,9.60
2023-03-22T07:01:21.377Z,9.74
2023-03-22T07:04:09.867Z,10.06
2023-03-22T07:06:58.505Z,10.09
2023-03-22T07:09:47.366Z,10.43
2023-03-22T07:12:37.373Z,10.44
2023-03-22T07:15:26.000Z,11.02
2023-03-22T07:18:14.469Z,11.38
2023-03-22T07:21:02.926Z,11.87
2023-03-22T07:23:51.509Z,12.12
2023-03-22T07:26:40.705Z,12.53
2023-03-22T07:29:31.279Z,12.74
2023-03-22T07:32:20.056Z,12.98
2023-03-22T07:35:09.064Z,13.42
2023-03-22T07:37:57.578Z,13.69
2023-03-22T07:40:46.084Z,13.98
2023-03-22T07:43:47.309Z,14.25
2023-03-22T07:46:42.699Z,14.38
2023-03-22T07:49:31.542Z,14.60
2023-03-22T07:52:20.327Z,14.85
2023-03-22T07:55:10.281Z,15.19
2023-03-22T07:57:58.830Z,15.34
2023-03-22T08:00:49.578Z,15.56
2023-03-22T08:03:40.165Z,15.69
2023-03-22T08:06:29.699Z,15.88
2023-03-22T08:09:18.451Z,16.08
2023-03-22T08:12:07.309Z,16.18
2023-03-22T08:14:55.890Z,16.12
2023-03-22T08:17:44.751Z,16.54
2023-03-22T08:20:36.778Z,16.82
2023-03-22T08:23:38.385Z,16.87
2023-03-22T08:26:29.595Z,17.03
2023-03-22T08:29:18.808Z,17.17
2023-03-22T08:32:07.300Z,17.29
2023-03-22T08:34:55.857Z,17.42
2023-03-22T08:37:45.903Z,16.89
2023-03-22T08:40:34.678Z,17.50
2023-03-22T08:43:23.156Z,17.98
2023-03-22T08:46:11.687Z,18.02
2023-03-22T08:49:02.295Z,17.97
2023-03-22T08:51:50.841Z,18.10
2023-03-22T08:54:41.136Z,18.17
2023-03-22T08:57:29.741Z,17.97
2023-03-22T09:00:19.910Z,17.91
2023-03-22T09:03:08.438Z,17.95
2023-03-22T09:05:56.958Z,18.16
2023-03-22T09:08:45.569Z,18.28
2023-03-22T09:11:37.168Z,18.00
2023-03-22T09:14:25.747Z,17.74
2023-03-22T09:17:14.357Z,17.61
2023-03-22T09:20:12.495Z,17.61
2023-03-22T09:23:01.790Z,17.71
2023-03-22T09:25:51.165Z,17.91
2023-03-22T09:28:41.303Z,17.89
2023-03-22T09:31:29.901Z,17.67
2023-03-22T09:34:18.402Z,17.73
2023-03-22T09:37:06.980Z,17.86
2023-03-22T09:39:55.564Z,18.07
2023-03-22T09:42:46.540Z,18.45
2023-03-22T09:45:41.145Z,18.65
2023-03-22T09:48:32.462Z,18.68
2023-03-22T09:51:30.882Z,18.71
2023-03-22T09:54:22.035Z,18.75
2023-03-22T09:57:16.077Z,18.73
2023-03-22T10:00:14.454Z,18.80
2023-03-22T10:03:14.760Z,18.92
2023-03-22T10:06:05.386Z,18.96
2023-03-22T10:09:00.678Z,18.94
2023-03-22T10:11:55.833Z,18.88
2023-03-22T10:14:51.437Z,18.81
2023-03-22T10:17:41.109Z,18.91
2023-03-22T10:20:38.189Z,18.68
2023-03-22T10:23:30.356Z,19.29
2023-03-22T10:26:21.423Z,19.40
2023-03-22T10:29:13.956Z,19.46
2023-03-22T10:32:13.511Z,19.21
2023-03-22T10:35:02.028Z,19.02
2023-03-22T10:37:52.792Z,18.95
2023-03-22T10:40:41.880Z,19.34
2023-03-22T10:43:33.514Z,19.16
2023-03-22T10:46:24.033Z,19.09
2023-03-22T10:49:14.833Z,19.15
2023-03-22T10:52:05.387Z,18.77
2023-03-22T10:54:57.815Z,18.78
2023-03-22T10:57:56.166Z,19.28
2023-03-22T11:00:47.203Z,18.85
2023-03-22T11:03:40.833Z,19.25
2023-03-22T11:06:32.870Z,19.14
2023-03-22T11:09:23.527Z,19.13
2023-03-22T11:12:14.317Z,19.17
2023-03-22T11:15:03.422Z,19.23
2023-03-22T11:17:52.161Z,19.45
2023-03-22T11:20:41.885Z,19.09
2023-03-22T11:23:33.041Z,18.74
2023-03-22T11:26:28.050Z,18.93
2023-03-22T11:29:20.508Z,18.93
2023-03-22T11:32:21.946Z,19.08
2023-03-22T11:35:14.644Z,19.44
2023-03-22T11:38:03.149Z,19.66
2023-03-22T11:40:56.200Z,19.47
2023-03-22T11:43:48.782Z,19.96
2023-03-22T11:46:39.074Z,19.65
2023-03-22T11:49:32.309Z,19.63
2023-03-22T11:52:23.507Z,19.89
2023-03-22T11:55:15.465Z,20.34
2023-03-22T11:58:04.922Z,20.42
2023-03-22T12:00:54.525Z,20.43
2023-03-22T12:03:45.044Z,20.14
2023-03-22T12:06:35.448Z,20.60
2023-03-22T12:09:27.718Z,20.82
2023-03-22T12:12:19.092Z,20.66
2023-03-22T12:15:12.259Z,20.51
2023-03-22T12:18:07.728Z,20.36
2023-03-22T12:20:59.344Z,20.30
2023-03-22T12:23:47.873Z,20.24
2023-03-22T12:26:37.586Z,20.41
2023-03-22T12:29:27.027Z,20.28
2023-03-22T12:32:19.728Z,20.25
2023-03-22T12:35:17.087Z,20.59
2023-03-22T12:38:16.716Z,20.55
2023-03-22T12:41:09.203Z,20.49
2023-03-22T12:44:00.965Z,20.53
2023-03-22T12:46:51.646Z,20.59
2023-03-22T12:49:42.942Z,20.80
2023-03-22T12:52:44.682Z,20.77
2023-03-22T12:55:37.205Z,20.81
2023-03-22T12:58:27.321Z,20.56
2023-03-22T13:01:24.230Z,20.89
2023-03-22T13:04:31.300Z,20.40
2023-03-22T13:07:35.605Z,20.61
2023-03-22T13:11:06.305Z,20.45
2023-03-22T13:13:54.914Z,20.54
2023-03-22T13:16:51.035Z,20.41
2023-03-22T13:19:39.649Z,20.36
2023-03-22T13:22:29.922Z,20.26
2023-03-22T13:25:35.804Z,20.38
2023-03-22T13:28:27.246Z,20.44
2023-03-22T13:31:38.838Z,20.17
2023-03-22T13:34:38.539Z,19.96
2023-03-22T13:37:32.119Z,19.87
2023-03-22T13:40:29.769Z,19.92
2023-03-22T13:43:32.462Z,20.32
2023-03-22T13:46:46.125Z,20.45
2023-03-22T13:49:49.964Z,20.31
2023-03-22T13:52:40.610Z,20.33
2023-03-22T13:55:58.521Z,20.17
2023-03-22T13:58:53.068Z,20.05
2023-03-22T14:01:47.668Z,20.17
2023-03-22T14:04:40.569Z,20.10
2023-03-22T14:07:32.862Z,19.99
2023-03-22T14:10:24.769Z,20.02
2023-03-22T14:13:17.704Z,20.16
2023-03-22T14:16:12.726Z,20.23
2023-03-22T14:19:02.086Z,20.23
